sensor_id;sensor_type;location;lat;lon;timestamp;pressure;altitude;pressure_sealevel;temperature;humidity
61436;BME280;47304;47.456;19.160;2023-05-02T00:00:30;100335.80;;;12.29;49.21
61436;BME280;47304;47.456;19.160;2023-05-02T00:02:57;100336.85;;;12.30;49.56
61436;BME280;47304;47.456;19.160;2023-05-02T00:05:24;100336.85;;;12.30;49.47
61436;BME280;47304;47.456;19.160;2023-05-02T00:07:51;100337.55;;;12.31;49.21
61436;BME280;47304;47.456;19.160;2023-05-02T00:10:18;100332.96;;;12.32;49.28
61436;BME280;47304;47.456;19.160;2023-05-02T00:12:44;100332.42;;;12.34;49.44
61436;BME280;47304;47.456;19.160;2023-05-02T00:15:11;100329.79;;;12.36;49.15
61436;BME280;47304;47.456;19.160;2023-05-02T00:17:41;100327.81;;;12.39;48.92
61436;BME280;47304;47.456;19.160;2023-05-02T00:20:09;100328.88;;;12.40;49.09
61436;BME280;47304;47.456;19.160;2023-05-02T00:22:36;100336.39;;;12.44;48.70
61436;BME280;47304;47.456;19.160;2023-05-02T00:25:04;100333.73;;;12.46;47.75
61436;BME280;47304;47.456;19.160;2023-05-02T00:27:30;100334.06;;;12.50;48.51
61436;BME280;47304;47.456;19.160;2023-05-02T00:29:57;100338.41;;;12.53;49.44
61436;BME280;47304;47.456;19.160;2023-05-02T00:32:24;100335.94;;;12.56;49.14
61436;BME280;47304;47.456;19.160;2023-05-02T00:34:51;100334.87;;;12.57;48.37
61436;BME280;47304;47.456;19.160;2023-05-02T00:37:18;100338.02;;;12.58;49.57
61436;BME280;47304;47.456;19.160;2023-05-02T00:39:45;100341.70;;;12.60;49.42
61436;BME280;47304;47.456;19.160;2023-05-02T00:42:11;100336.78;;;12.60;49.16
61436;BME280;47304;47.456;19.160;2023-05-02T00:44:38;100336.95;;;12.60;50.02
61436;BME280;47304;47.456;19.160;2023-05-02T00:47:04;100332.73;;;12.60;50.25
61436;BME280;47304;47.456;19.160;2023-05-02T00:49:31;100329.91;;;12.60;50.06
61436;BME280;47304;47.456;19.160;2023-05-02T00:51:57;100340.80;;;12.61;50.00
61436;BME280;47304;47.456;19.160;2023-05-02T00:54:24;100335.35;;;12.61;49.48
61436;BME280;47304;47.456;19.160;2023-05-02T00:56:50;100339.58;;;12.61;49.55
61436;BME280;47304;47.456;19.160;2023-05-02T00:59:17;100340.81;;;12.61;49.84
61436;BME280;47304;47.456;19.160;2023-05-02T01:07:59;100340.13;;;12.58;50.53
61436;BME280;47304;47.456;19.160;2023-05-02T01:13:02;100340.68;;;12.55;51.07
61436;BME280;47304;47.456;19.160;2023-05-02T01:15:33;100341.41;;;12.52;50.87
61436;BME280;47304;47.456;19.160;2023-05-02T01:18:02;100343.18;;;12.51;51.40
61436;BME280;47304;47.456;19.160;2023-05-02T01:20:32;100334.58;;;12.50;50.99
61436;BME280;47304;47.456;19.160;2023-05-02T01:23:05;100334.95;;;12.47;50.87
61436;BME280;47304;47.456;19.160;2023-05-02T01:26:02;100334.43;;;12.46;51.20
61436;BME280;47304;47.456;19.160;2023-05-02T01:28:54;100330.93;;;12.45;51.25
61436;BME280;47304;47.456;19.160;2023-05-02T01:31:24;100330.39;;;12.46;51.60
61436;BME280;47304;47.456;19.160;2023-05-02T01:33:53;100330.58;;;12.45;51.68
61436;BME280;47304;47.456;19.160;2023-05-02T01:36:20;100326.19;;;12.43;52.10
61436;BME280;47304;47.456;19.160;2023-05-02T01:38:49;100327.10;;;12.41;52.20
61436;BME280;47304;47.456;19.160;2023-05-02T01:41:17;100322.02;;;12.40;52.27
61436;BME280;47304;47.456;19.160;2023-05-02T01:43:45;100329.21;;;12.39;52.26
61436;BME280;47304;47.456;19.160;2023-05-02T01:46:13;100324.33;;;12.37;52.52
61436;BME280;47304;47.456;19.160;2023-05-02T01:48:43;100328.56;;;12.35;52.59
61436;BME280;47304;47.456;19.160;2023-05-02T01:51:14;100319.09;;;12.32;52.66
61436;BME280;47304;47.456;19.160;2023-05-02T01:53:42;100320.00;;;12.29;52.87
61436;BME280;47304;47.456;19.160;2023-05-02T01:56:09;100320.18;;;12.28;53.20
61436;BME280;47304;47.456;19.160;2023-05-02T01:58:37;100318.98;;;12.25;53.38
61436;BME280;47304;47.456;19.160;2023-05-02T02:01:05;100318.65;;;12.22;53.30
61436;BME280;47304;47.456;19.160;2023-05-02T02:03:34;100311.64;;;12.20;53.45
61436;BME280;47304;47.456;19.160;2023-05-02T02:06:01;100315.02;;;12.16;53.53
61436;BME280;47304;47.456;19.160;2023-05-02T02:08:28;100310.12;;;12.12;53.33
61436;BME280;47304;47.456;19.160;2023-05-02T02:10:59;100309.12;;;12.07;53.56
61436;BME280;47304;47.456;19.160;2023-05-02T02:13:34;100308.63;;;12.01;53.51
61436;BME280;47304;47.456;19.160;2023-05-02T02:16:03;100306.20;;;11.95;53.82
61436;BME280;47304;47.456;19.160;2023-05-02T02:18:35;100309.73;;;11.89;53.89
61436;BME280;47304;47.456;19.160;2023-05-02T02:21:05;100306.08;;;11.84;54.00
61436;BME280;47304;47.456;19.160;2023-05-02T02:23:33;100305.75;;;11.80;54.11
61436;BME280;47304;47.456;19.160;2023-05-02T02:26:03;100301.77;;;11.74;54.21
61436;BME280;47304;47.456;19.160;2023-05-02T02:28:30;100306.52;;;11.68;54.62
61436;BME280;47304;47.456;19.160;2023-05-02T02:30:57;100302.69;;;11.64;54.66
61436;BME280;47304;47.456;19.160;2023-05-02T02:33:28;100302.72;;;11.61;54.53
61436;BME280;47304;47.456;19.160;2023-05-02T02:36:14;100298.70;;;11.57;54.71
61436;BME280;47304;47.456;19.160;2023-05-02T02:38:47;100303.10;;;11.53;54.92
61436;BME280;47304;47.456;19.160;2023-05-02T02:41:21;100306.81;;;11.49;54.76
61436;BME280;47304;47.456;19.160;2023-05-02T02:49:26;100307.61;;;11.30;55.15
61436;BME280;47304;47.456;19.160;2023-05-02T02:54:40;100302.39;;;11.17;55.47
61436;BME280;47304;47.456;19.160;2023-05-02T02:57:49;100305.92;;;11.13;55.87
61436;BME280;47304;47.456;19.160;2023-05-02T03:00:22;100302.95;;;11.06;56.07
61436;BME280;47304;47.456;19.160;2023-05-02T03:02:51;100308.94;;;11.02;56.17
61436;BME280;47304;47.456;19.160;2023-05-02T03:05:18;100306.15;;;10.99;56.28
61436;BME280;47304;47.456;19.160;2023-05-02T03:07:46;100309.30;;;10.96;56.79
61436;BME280;47304;47.456;19.160;2023-05-02T03:10:13;100309.32;;;10.92;56.80
61436;BME280;47304;47.456;19.160;2023-05-02T03:12:39;100312.12;;;10.92;56.92
61436;BME280;47304;47.456;19.160;2023-05-02T03:15:21;100313.89;;;10.89;57.10
61436;BME280;47304;47.456;19.160;2023-05-02T03:17:50;100313.90;;;10.82;57.11
61436;BME280;47304;47.456;19.160;2023-05-02T03:20:16;100314.96;;;10.78;57.30
61436;BME280;47304;47.456;19.160;2023-05-02T03:22:43;100316.02;;;10.74;57.56
61436;BME280;47304;47.456;19.160;2023-05-02T03:25:09;100320.57;;;10.74;57.81
61436;BME280;47304;47.456;19.160;2023-05-02T03:27:36;100318.46;;;10.73;57.84
61436;BME280;47304;47.456;19.160;2023-05-02T03:30:03;100320.94;;;10.72;58.07
61436;BME280;47304;47.456;19.160;2023-05-02T03:32:30;100320.23;;;10.70;58.03
61436;BME280;47304;47.456;19.160;2023-05-02T03:34:56;100323.21;;;10.68;58.35
61436;BME280;47304;47.456;19.160;2023-05-02T03:37:23;100317.44;;;10.65;58.48
61436;BME280;47304;47.456;19.160;2023-05-02T03:39:50;100325.31;;;10.65;58.55
61436;BME280;47304;47.456;19.160;2023-05-02T03:42:16;100328.83;;;10.64;58.78
61436;BME280;47304;47.456;19.160;2023-05-02T03:44:43;100327.42;;;10.63;58.96
61436;BME280;47304;47.456;19.160;2023-05-02T03:47:09;100330.05;;;10.62;59.02
61436;BME280;47304;47.456;19.160;2023-05-02T03:49:36;100332.16;;;10.60;59.41
61436;BME280;47304;47.456;19.160;2023-05-02T03:52:03;100331.98;;;10.58;59.30
61436;BME280;47304;47.456;19.160;2023-05-02T03:54:32;100334.27;;;10.56;59.33
61436;BME280;47304;47.456;19.160;2023-05-02T03:56:59;100330.23;;;10.55;59.45
61436;BME280;47304;47.456;19.160;2023-05-02T03:59:25;100335.31;;;10.56;59.76
61436;BME280;47304;47.456;19.160;2023-05-02T04:01:52;100336.55;;;10.55;59.75
61436;BME280;47304;47.456;19.160;2023-05-02T04:04:18;100340.73;;;10.55;59.91
61436;BME280;47304;47.456;19.160;2023-05-02T04:06:45;100342.33;;;10.55;59.97
61436;BME280;47304;47.456;19.160;2023-05-02T04:09:12;100340.40;;;10.55;59.89
61436;BME280;47304;47.456;19.160;2023-05-02T04:11:38;100342.52;;;10.57;59.77
61436;BME280;47304;47.456;19.160;2023-05-02T04:14:05;100343.55;;;10.59;59.70
61436;BME280;47304;47.456;19.160;2023-05-02T04:16:31;100344.41;;;10.64;59.52
61436;BME280;47304;47.456;19.160;2023-05-02T04:18:58;100344.23;;;10.68;59.49
61436;BME280;47304;47.456;19.160;2023-05-02T04:21:24;100345.80;;;10.72;59.85
61436;BME280;47304;47.456;19.160;2023-05-02T04:23:51;100344.57;;;10.77;60.08
61436;BME280;47304;47.456;19.160;2023-05-02T04:26:17;100352.98;;;10.82;60.23
61436;BME280;47304;47.456;19.160;2023-05-02T04:28:44;100357.02;;;10.86;60.18
61436;BME280;47304;47.456;19.160;2023-05-02T04:31:10;100353.84;;;10.89;59.77
61436;BME280;47304;47.456;19.160;2023-05-02T04:33:37;100358.39;;;10.94;59.88
61436;BME280;47304;47.456;19.160;2023-05-02T04:36:04;100359.61;;;10.99;59.96
61436;BME280;47304;47.456;19.160;2023-05-02T04:38:30;100360.46;;;11.05;59.86
61436;BME280;47304;47.456;19.160;2023-05-02T04:40:57;100361.16;;;11.12;60.27
61436;BME280;47304;47.456;19.160;2023-05-02T04:43:23;100358.67;;;11.20;60.40
61436;BME280;47304;47.456;19.160;2023-05-02T04:45:50;100361.45;;;11.28;60.21
61436;BME280;47304;47.456;19.160;2023-05-02T04:48:16;100359.67;;;11.34;60.58
61436;BME280;47304;47.456;19.160;2023-05-02T04:50:44;100360.36;;;11.40;60.78
61436;BME280;47304;47.456;19.160;2023-05-02T04:53:10;100362.96;;;11.48;60.75
61436;BME280;47304;47.456;19.160;2023-05-02T04:55:37;100364.84;;;11.57;60.83
61436;BME280;47304;47.456;19.160;2023-05-02T04:58:03;100366.39;;;11.64;61.31
61436;BME280;47304;47.456;19.160;2023-05-02T05:00:30;100364.08;;;11.72;61.06
61436;BME280;47304;47.456;19.160;2023-05-02T05:02:56;100373.50;;;11.80;60.09
61436;BME280;47304;47.456;19.160;2023-05-02T05:05:26;100368.55;;;11.87;59.94
61436;BME280;47304;47.456;19.160;2023-05-02T05:07:53;100366.56;;;11.97;59.46
61436;BME280;47304;47.456;19.160;2023-05-02T05:10:19;100370.58;;;12.07;60.17
61436;BME280;47304;47.456;19.160;2023-05-02T05:12:46;100372.42;;;12.18;60.43
61436;BME280;47304;47.456;19.160;2023-05-02T05:15:12;100370.41;;;12.29;59.98
61436;BME280;47304;47.456;19.160;2023-05-02T05:17:39;100372.60;;;12.41;59.15
61436;BME280;47304;47.456;19.160;2023-05-02T05:20:06;100370.92;;;12.53;59.32
61436;BME280;47304;47.456;19.160;2023-05-02T05:22:40;100371.86;;;12.65;58.32
61436;BME280;47304;47.456;19.160;2023-05-02T05:25:08;100374.58;;;12.76;57.17
61436;BME280;47304;47.456;19.160;2023-05-02T05:27:35;100373.43;;;12.87;57.24
61436;BME280;47304;47.456;19.160;2023-05-02T05:30:05;100372.42;;;12.98;57.77
61436;BME280;47304;47.456;19.160;2023-05-02T05:32:32;100380.06;;;13.09;58.14
61436;BME280;47304;47.456;19.160;2023-05-02T05:34:59;100377.33;;;13.18;57.44
61436;BME280;47304;47.456;19.160;2023-05-02T05:37:25;100380.05;;;13.27;57.23
61436;BME280;47304;47.456;19.160;2023-05-02T05:39:52;100386.81;;;13.35;57.49
61436;BME280;47304;47.456;19.160;2023-05-02T05:42:18;100393.79;;;13.43;56.45
61436;BME280;47304;47.456;19.160;2023-05-02T05:44:45;100394.21;;;13.52;56.26
61436;BME280;47304;47.456;19.160;2023-05-02T05:47:11;100395.69;;;13.61;56.59
61436;BME280;47304;47.456;19.160;2023-05-02T05:49:38;100395.60;;;13.68;56.59
61436;BME280;47304;47.456;19.160;2023-05-02T05:52:05;100403.77;;;13.77;56.80
61436;BME280;47304;47.456;19.160;2023-05-02T05:54:31;100400.63;;;13.87;55.93
61436;BME280;47304;47.456;19.160;2023-05-02T05:56:58;100399.46;;;13.96;55.63
61436;BME280;47304;47.456;19.160;2023-05-02T05:59:24;100400.73;;;14.06;55.27
61436;BME280;47304;47.456;19.160;2023-05-02T06:01:50;100396.66;;;14.19;54.14
61436;BME280;47304;47.456;19.160;2023-05-02T06:04:17;100399.42;;;14.34;53.72
61436;BME280;47304;47.456;19.160;2023-05-02T06:06:43;100401.64;;;14.49;52.45
61436;BME280;47304;47.456;19.160;2023-05-02T06:09:10;100399.50;;;14.63;51.85
61436;BME280;47304;47.456;19.160;2023-05-02T06:11:37;100401.09;;;14.75;51.59
61436;BME280;47304;47.456;19.160;2023-05-02T06:14:03;100401.05;;;14.87;51.46
61436;BME280;47304;47.456;19.160;2023-05-02T06:16:30;100398.72;;;14.99;51.03
61436;BME280;47304;47.456;19.160;2023-05-02T06:18:56;100400.98;;;15.11;50.72
61436;BME280;47304;47.456;19.160;2023-05-02T06:21:23;100402.52;;;15.23;50.31
61436;BME280;47304;47.456;19.160;2023-05-02T06:23:49;100398.06;;;15.34;50.35
61436;BME280;47304;47.456;19.160;2023-05-02T06:26:16;100398.20;;;15.45;50.25
61436;BME280;47304;47.456;19.160;2023-05-02T06:28:42;100400.17;;;15.60;49.85
61436;BME280;47304;47.456;19.160;2023-05-02T06:31:09;100397.09;;;15.73;49.73
61436;BME280;47304;47.456;19.160;2023-05-02T06:33:36;100399.67;;;15.86;49.82
61436;BME280;47304;47.456;19.160;2023-05-02T06:36:02;100399.30;;;15.95;49.71
61436;BME280;47304;47.456;19.160;2023-05-02T06:38:29;100403.89;;;16.04;49.56
61436;BME280;47304;47.456;19.160;2023-05-02T06:40:55;100403.71;;;16.12;49.65
61436;BME280;47304;47.456;19.160;2023-05-02T06:43:22;100405.48;;;16.19;50.21
61436;BME280;47304;47.456;19.160;2023-05-02T06:45:52;100405.39;;;16.23;49.87
61436;BME280;47304;47.456;19.160;2023-05-02T06:48:18;100409.35;;;16.27;49.20
61436;BME280;47304;47.456;19.160;2023-05-02T06:50:45;100408.31;;;16.34;48.99
61436;BME280;47304;47.456;19.160;2023-05-02T06:53:12;100408.27;;;16.43;48.70
61436;BME280;47304;47.456;19.160;2023-05-02T06:55:38;100408.71;;;16.55;48.83
61436;BME280;47304;47.456;19.160;2023-05-02T06:58:05;100412.30;;;16.66;48.44
61436;BME280;47304;47.456;19.160;2023-05-02T07:00:31;100407.73;;;16.80;47.60
61436;BME280;47304;47.456;19.160;2023-05-02T07:02:58;100405.45;;;16.93;47.62
61436;BME280;47304;47.456;19.160;2023-05-02T07:05:25;100406.52;;;17.07;47.58
61436;BME280;47304;47.456;19.160;2023-05-02T07:07:52;100404.86;;;17.16;47.03
61436;BME280;47304;47.456;19.160;2023-05-02T07:10:18;100408.52;;;17.19;46.84
61436;BME280;47304;47.456;19.160;2023-05-02T07:12:45;100412.98;;;17.23;47.17
61436;BME280;47304;47.456;19.160;2023-05-02T07:15:11;100409.59;;;17.25;46.69
61436;BME280;47304;47.456;19.160;2023-05-02T07:17:38;100413.96;;;17.27;46.82
61436;BME280;47304;47.456;19.160;2023-05-02T07:20:06;100414.52;;;17.32;47.00
61436;BME280;47304;47.456;19.160;2023-05-02T07:22:33;100410.33;;;17.42;47.12
61436;BME280;47304;47.456;19.160;2023-05-02T07:25:01;100410.07;;;17.52;46.47
61436;BME280;47304;47.456;19.160;2023-05-02T07:27:28;100408.90;;;17.62;46.00
61436;BME280;47304;47.456;19.160;2023-05-02T07:29:54;100411.55;;;17.74;46.32
61436;BME280;47304;47.456;19.160;2023-05-02T07:32:21;100407.80;;;17.87;46.22
61436;BME280;47304;47.456;19.160;2023-05-02T07:34:48;100407.91;;;17.96;45.81
61436;BME280;47304;47.456;19.160;2023-05-02T07:37:14;100413.34;;;17.99;44.81
61436;BME280;47304;47.456;19.160;2023-05-02T07:39:41;100412.80;;;17.99;44.47
61436;BME280;47304;47.456;19.160;2023-05-02T07:42:07;100414.30;;;18.02;44.80
61436;BME280;47304;47.456;19.160;2023-05-02T07:44:34;100418.99;;;18.11;44.93
61436;BME280;47304;47.456;19.160;2023-05-02T07:47:00;100424.05;;;18.19;44.84
61436;BME280;47304;47.456;19.160;2023-05-02T07:49:27;100414.98;;;18.26;44.50
61436;BME280;47304;47.456;19.160;2023-05-02T07:51:53;100414.58;;;18.33;44.33
61436;BME280;47304;47.456;19.160;2023-05-02T07:54:21;100413.22;;;18.42;43.94
61436;BME280;47304;47.456;19.160;2023-05-02T07:56:47;100412.77;;;18.56;43.57
61436;BME280;47304;47.456;19.160;2023-05-02T07:59:14;100415.40;;;18.73;43.02
61436;BME280;47304;47.456;19.160;2023-05-02T08:01:41;100412.31;;;18.86;42.38
61436;BME280;47304;47.456;19.160;2023-05-02T08:04:08;100409.30;;;18.96;42.68
61436;BME280;47304;47.456;19.160;2023-05-02T08:06:34;100414.20;;;19.04;42.20
61436;BME280;47304;47.456;19.160;2023-05-02T08:09:01;100409.59;;;19.09;42.32
61436;BME280;47304;47.456;19.160;2023-05-02T08:11:28;100417.43;;;19.24;41.22
61436;BME280;47304;47.456;19.160;2023-05-02T08:13:54;100415.46;;;19.34;41.39
61436;BME280;47304;47.456;19.160;2023-05-02T08:16:21;100414.59;;;19.43;41.72
61436;BME280;47304;47.456;19.160;2023-05-02T08:18:47;100415.84;;;19.53;41.21
61436;BME280;47304;47.456;19.160;2023-05-02T08:21:14;100418.31;;;19.68;41.32
61436;BME280;47304;47.456;19.160;2023-05-02T08:23:40;100416.07;;;19.85;40.88
61436;BME280;47304;47.456;19.160;2023-05-02T08:26:07;100414.63;;;20.05;40.78
61436;BME280;47304;47.456;19.160;2023-05-02T08:28:33;100408.80;;;20.22;40.38
61436;BME280;47304;47.456;19.160;2023-05-02T08:31:00;100411.59;;;20.41;40.27
61436;BME280;47304;47.456;19.160;2023-05-02T08:33:26;100411.13;;;20.57;39.59
61436;BME280;47304;47.456;19.160;2023-05-02T08:35:53;100408.42;;;20.71;39.76
61436;BME280;47304;47.456;19.160;2023-05-02T08:38:20;100403.91;;;20.90;39.07
61436;BME280;47304;47.456;19.160;2023-05-02T08:40:46;100403.70;;;21.07;38.76
61436;BME280;47304;47.456;19.160;2023-05-02T08:43:15;100404.05;;;21.20;38.58
61436;BME280;47304;47.456;19.160;2023-05-02T08:45:43;100403.34;;;21.24;38.15
61436;BME280;47304;47.456;19.160;2023-05-02T08:48:11;100403.77;;;21.26;38.17
61436;BME280;47304;47.456;19.160;2023-05-02T08:50:39;100400.03;;;21.38;38.63
61436;BME280;47304;47.456;19.160;2023-05-02T08:53:08;100392.10;;;21.56;38.51
61436;BME280;47304;47.456;19.160;2023-05-02T08:55:37;100388.74;;;21.75;38.39
61436;BME280;47304;47.456;19.160;2023-05-02T08:58:05;100387.23;;;21.96;37.30
61436;BME280;47304;47.456;19.160;2023-05-02T09:00:32;100387.33;;;22.13;36.81
61436;BME280;47304;47.456;19.160;2023-05-02T09:05:42;100386.95;;;22.39;36.00
61436;BME280;47304;47.456;19.160;2023-05-02T09:08:08;100382.30;;;22.39;35.41
61436;BME280;47304;47.456;19.160;2023-05-02T09:10:35;100383.40;;;22.35;35.08
61436;BME280;47304;47.456;19.160;2023-05-02T09:13:38;100382.66;;;22.36;34.98
61436;BME280;47304;47.456;19.160;2023-05-02T09:16:10;100386.23;;;22.39;34.96
61436;BME280;47304;47.456;19.160;2023-05-02T09:18:38;100384.36;;;22.45;35.26
61436;BME280;47304;47.456;19.160;2023-05-02T09:21:10;100386.55;;;22.55;35.13
61436;BME280;47304;47.456;19.160;2023-05-02T09:23:46;100383.13;;;22.63;34.70
61436;BME280;47304;47.456;19.160;2023-05-02T09:26:25;100384.02;;;22.73;34.94
61436;BME280;47304;47.456;19.160;2023-05-02T09:28:55;100386.64;;;22.78;34.93
61436;BME280;47304;47.456;19.160;2023-05-02T09:31:26;100381.29;;;22.82;34.97
61436;BME280;47304;47.456;19.160;2023-05-02T09:34:16;100378.64;;;22.95;35.18
61436;BME280;47304;47.456;19.160;2023-05-02T09:36:48;100379.36;;;23.12;34.80
61436;BME280;47304;47.456;19.160;2023-05-02T09:39:17;100377.59;;;23.29;34.48
61436;BME280;47304;47.456;19.160;2023-05-02T09:41:45;100377.74;;;23.40;33.79
61436;BME280;47304;47.456;19.160;2023-05-02T09:44:16;100377.61;;;23.42;33.36
61436;BME280;47304;47.456;19.160;2023-05-02T09:46:47;100372.32;;;23.54;33.71
61436;BME280;47304;47.456;19.160;2023-05-02T09:49:14;100365.39;;;23.66;33.43
61436;BME280;47304;47.456;19.160;2023-05-02T09:51:41;100372.31;;;23.80;33.19
61436;BME280;47304;47.456;19.160;2023-05-02T09:54:07;100378.70;;;23.94;33.38
61436;BME280;47304;47.456;19.160;2023-05-02T09:56:56;100380.45;;;23.95;32.67
61436;BME280;47304;47.456;19.160;2023-05-02T09:59:23;100382.16;;;23.93;32.53
61436;BME280;47304;47.456;19.160;2023-05-02T10:02:08;100388.73;;;23.88;32.42
61436;BME280;47304;47.456;19.160;2023-05-02T10:04:34;100383.99;;;23.76;32.16
61436;BME280;47304;47.456;19.160;2023-05-02T10:07:02;100379.52;;;23.73;32.37
61436;BME280;47304;47.456;19.160;2023-05-02T10:09:29;100381.58;;;23.75;33.14
61436;BME280;47304;47.456;19.160;2023-05-02T10:11:56;100380.91;;;23.83;33.17
61436;BME280;47304;47.456;19.160;2023-05-02T10:14:24;100380.30;;;23.91;33.10
61436;BME280;47304;47.456;19.160;2023-05-02T10:17:04;100377.36;;;24.03;32.99
61436;BME280;47304;47.456;19.160;2023-05-02T10:22:19;100372.21;;;24.18;32.64
61436;BME280;47304;47.456;19.160;2023-05-02T10:24:48;100371.52;;;24.20;32.34
61436;BME280;47304;47.456;19.160;2023-05-02T10:27:15;100367.65;;;24.32;32.37
61436;BME280;47304;47.456;19.160;2023-05-02T10:29:43;100361.13;;;24.64;32.63
61436;BME280;47304;47.456;19.160;2023-05-02T10:32:09;100368.34;;;25.14;31.50
61436;BME280;47304;47.456;19.160;2023-05-02T10:34:37;100361.34;;;25.47;30.86
61436;BME280;47304;47.456;19.160;2023-05-02T10:37:04;100353.78;;;25.89;30.69
61436;BME280;47304;47.456;19.160;2023-05-02T10:39:31;100348.46;;;26.57;30.38
61436;BME280;47304;47.456;19.160;2023-05-02T10:41:58;100344.77;;;26.94;30.14
61436;BME280;47304;47.456;19.160;2023-05-02T10:44:35;100348.38;;;27.09;30.54
61436;BME280;47304;47.456;19.160;2023-05-02T10:47:20;100347.45;;;27.80;29.50
61436;BME280;47304;47.456;19.160;2023-05-02T10:49:52;100349.00;;;28.44;28.32
61436;BME280;47304;47.456;19.160;2023-05-02T10:52:36;100343.33;;;28.88;28.02
61436;BME280;47304;47.456;19.160;2023-05-02T11:00:43;100332.29;;;33.00;24.40
61436;BME280;47304;47.456;19.160;2023-05-02T11:03:10;100334.77;;;32.93;23.87
61436;BME280;47304;47.456;19.160;2023-05-02T11:06:03;100333.16;;;32.36;24.00
61436;BME280;47304;47.456;19.160;2023-05-02T11:08:30;100335.61;;;31.79;24.54
61436;BME280;47304;47.456;19.160;2023-05-02T11:14:01;100329.63;;;30.70;25.46
61436;BME280;47304;47.456;19.160;2023-05-02T11:19:24;100317.98;;;30.38;25.79
61436;BME280;47304;47.456;19.160;2023-05-02T11:21:51;100315.55;;;29.84;26.50
61436;BME280;47304;47.456;19.160;2023-05-02T11:24:37;100323.59;;;29.27;26.30
61436;BME280;47304;47.456;19.160;2023-05-02T11:29:57;100318.91;;;28.31;27.56
61436;BME280;47304;47.456;19.160;2023-05-02T11:37:53;100316.20;;;27.06;27.62
61436;BME280;47304;47.456;19.160;2023-05-02T11:40:20;100312.15;;;26.79;28.43
61436;BME280;47304;47.456;19.160;2023-05-02T11:42:47;100312.24;;;26.64;28.92
61436;BME280;47304;47.456;19.160;2023-05-02T11:45:13;100308.39;;;26.50;28.92
61436;BME280;47304;47.456;19.160;2023-05-02T11:47:41;100308.55;;;26.34;29.60
61436;BME280;47304;47.456;19.160;2023-05-02T11:50:08;100301.91;;;26.23;30.13
61436;BME280;47304;47.456;19.160;2023-05-02T11:52:39;100301.91;;;26.12;29.80
61436;BME280;47304;47.456;19.160;2023-05-02T11:55:09;100304.60;;;25.95;28.80
61436;BME280;47304;47.456;19.160;2023-05-02T11:57:38;100301.56;;;25.76;28.72
61436;BME280;47304;47.456;19.160;2023-05-02T12:00:05;100307.02;;;25.63;28.65
61436;BME280;47304;47.456;19.160;2023-05-02T12:02:46;100300.17;;;25.59;28.62
61436;BME280;47304;47.456;19.160;2023-05-02T12:05:13;100298.99;;;25.57;28.79
61436;BME280;47304;47.456;19.160;2023-05-02T12:07:44;100297.94;;;25.54;29.02
61436;BME280;47304;47.456;19.160;2023-05-02T12:10:12;100298.66;;;25.54;29.33
61436;BME280;47304;47.456;19.160;2023-05-02T12:12:39;100303.42;;;25.50;28.67
61436;BME280;47304;47.456;19.160;2023-05-02T12:15:08;100302.69;;;25.38;28.44
61436;BME280;47304;47.456;19.160;2023-05-02T12:17:41;100294.95;;;25.27;28.51
61436;BME280;47304;47.456;19.160;2023-05-02T12:20:09;100296.71;;;25.22;29.09
61436;BME280;47304;47.456;19.160;2023-05-02T12:22:36;100293.73;;;25.18;28.73
61436;BME280;47304;47.456;19.160;2023-05-02T12:25:04;100292.16;;;25.09;28.95
61436;BME280;47304;47.456;19.160;2023-05-02T12:27:31;100291.80;;;25.03;28.71
61436;BME280;47304;47.456;19.160;2023-05-02T12:29:58;100301.05;;;25.04;28.84
61436;BME280;47304;47.456;19.160;2023-05-02T12:32:29;100293.52;;;25.10;28.63
61436;BME280;47304;47.456;19.160;2023-05-02T12:34:57;100294.65;;;25.15;28.35
61436;BME280;47304;47.456;19.160;2023-05-02T12:37:25;100292.02;;;25.17;28.60
61436;BME280;47304;47.456;19.160;2023-05-02T12:39:53;100287.42;;;25.21;28.15
61436;BME280;47304;47.456;19.160;2023-05-02T12:42:21;100284.81;;;25.35;28.07
61436;BME280;47304;47.456;19.160;2023-05-02T12:44:50;100285.18;;;25.46;27.71
61436;BME280;47304;47.456;19.160;2023-05-02T12:47:17;100283.16;;;25.50;27.95
61436;BME280;47304;47.456;19.160;2023-05-02T12:52:14;100288.88;;;25.44;28.70
61436;BME280;47304;47.456;19.160;2023-05-02T12:54:40;100290.52;;;25.35;28.80
61436;BME280;47304;47.456;19.160;2023-05-02T12:57:07;100291.50;;;25.22;28.41
61436;BME280;47304;47.456;19.160;2023-05-02T12:59:34;100294.08;;;25.07;29.09
61436;BME280;47304;47.456;19.160;2023-05-02T13:02:00;100291.29;;;24.94;29.32
61436;BME280;47304;47.456;19.160;2023-05-02T13:04:38;100293.14;;;24.84;29.56
61436;BME280;47304;47.456;19.160;2023-05-02T13:07:06;100289.95;;;24.75;29.48
61436;BME280;47304;47.456;19.160;2023-05-02T13:09:32;100287.66;;;24.74;29.90
61436;BME280;47304;47.456;19.160;2023-05-02T13:11:59;100285.85;;;24.80;29.81
61436;BME280;47304;47.456;19.160;2023-05-02T13:14:25;100275.65;;;24.83;29.87
61436;BME280;47304;47.456;19.160;2023-05-02T13:16:52;100269.42;;;24.80;29.76
61436;BME280;47304;47.456;19.160;2023-05-02T13:19:19;100268.94;;;24.73;29.75
61436;BME280;47304;47.456;19.160;2023-05-02T13:21:46;100270.32;;;24.61;30.06
61436;BME280;47304;47.456;19.160;2023-05-02T13:24:13;100271.52;;;24.53;30.16
61436;BME280;47304;47.456;19.160;2023-05-02T13:26:40;100271.45;;;24.48;30.10
61436;BME280;47304;47.456;19.160;2023-05-02T13:29:06;100272.21;;;24.38;29.77
61436;BME280;47304;47.456;19.160;2023-05-02T13:31:33;100271.88;;;24.29;29.89